Estación Meteorológica Peña el Pijo (Robertgarden) [ 01/30/23 14:07:45 CET ]

Fecha Hora Presion(HPa) Temp (°C) Humedad % Rocio (°C) Viento ( m/s) Direccion Lluvia 1Hora(mm) Lluvia 24H(mm) LLuvia Total(mm)
2010-Jun-09 01:01:17 1003.500 17.9 49 7.0         120.17
2010-Jun-09 02:01:16 1002.700 17.3 51 7.0         120.17
2010-Jun-09 03:04:16 1001.800 16.9 54 7.5         120.17
2010-Jun-09 04:01:18 1001.600 16.3 60 8.6         120.17
2010-Jun-09 05:01:12 1000.800 16.1 63 9.1         120.17
2010-Jun-09 06:01:14 1000.900 15.9 63 8.9         120.17
2010-Jun-09 07:01:20 1001.000 15.4 65 8.8         120.17
2010-Jun-09 08:01:14 1000.700 15.6 65 9.1         120.17
2010-Jun-09 09:01:11 1000.200 16.1 65 9.5         120.17
2010-Jun-09 10:01:16 1000.200 16.9 64 10.0         120.17
2010-Jun-09 11:01:18 1000.100 18.5 60 10.6         120.17
2010-Jun-09 12:01:19 999.900 19.7 48 8.4         120.17
2010-Jun-09 13:01:11 999.900 19.9 51 9.5         120.17
2010-Jun-09 14:01:11 999.700 20.9 51 10.4         120.17
2010-Jun-09 15:01:17 999.000 22.1 49 10.9         120.17
2010-Jun-09 16:01:13 998.600 21.4 51 10.8         120.17
2010-Jun-09 17:01:18 998.500 21.8 51 11.2         120.17
2010-Jun-09 18:01:12 998.100 21.0 52 10.8         120.17
2010-Jun-09 19:01:13 997.900 20.4 56 11.3         120.17
2010-Jun-09 20:01:18 997.900 18.2 64 11.2         120.17
2010-Jun-09 21:01:12 997.800 17.7 64 10.8         120.17
2010-Jun-09 22:01:13 999.200 14.9 72 9.9         120.17
2010-Jun-09 23:01:16 999.700 13.5 73 8.7         120.17

Temperatura Máxima:22°    Temperatura Mínima:13°
Presión Máxima:1003.500 Hpa    Presión Mínima:997.800 Hpa


Volver